Time;durP1;ratioP1;P1;durP2;ratioP2;P2;SDS_P1;SDS_P2;PMS_P1;PMS_P2;Temp;Humidity;BMP_temperature;BMP_pressure;BME280_temperature;BME280_humidity;BME280_pressure;Samples;Min_cycle;Max_cycle;Signal;HPM_P1;HPM_P2
2021/10/19 00:00:10;;;;;;;20.50;9.55;;;15.60;84.10;;;;;;5023415;28;20096;-73
2021/10/19 00:02:40;;;;;;;17.05;10.65;;;15.70;84.20;;;;;;5028651;28;20030;-73
2021/10/19 00:05:06;;;;;;;18.70;9.88;;;15.70;84.00;;;;;;5033756;28;20040;-73
2021/10/19 00:07:32;;;;;;;19.92;9.35;;;15.70;84.20;;;;;;5032300;28;20112;-73
2021/10/19 00:09:57;;;;;;;18.25;9.63;;;15.70;84.20;;;;;;5026080;28;20144;-73
2021/10/19 00:12:23;;;;;;;18.77;10.88;;;15.70;84.10;;;;;;5026733;28;20029;-73
2021/10/19 00:14:50;;;;;;;18.60;10.65;;;15.70;84.20;;;;;;5030266;28;20432;-73
2021/10/19 00:17:15;;;;;;;19.25;10.18;;;15.70;84.20;;;;;;5023387;28;20022;-73
2021/10/19 00:19:42;;;;;;;19.83;10.38;;;15.70;84.20;;;;;;5014246;28;20045;-73
2021/10/19 00:22:10;;;;;;;16.90;10.15;;;15.70;84.30;;;;;;5028400;28;20045;-73
2021/10/19 00:24:36;;;;;;;17.33;10.18;;;15.70;84.30;;;;;;5026361;28;20025;-73
2021/10/19 00:27:03;;;;;;;19.45;10.32;;;15.80;84.20;;;;;;5030366;28;20393;-73
2021/10/19 00:29:29;;;;;;;23.33;10.38;;;15.80;84.20;;;;;;5031260;28;20037;-73
2021/10/19 00:31:55;;;;;;;19.38;9.55;;;15.80;84.20;;;;;;5028165;28;20036;-72
2021/10/19 00:34:20;;;;;;;17.98;10.05;;;15.80;84.30;;;;;;5032497;28;20458;-73
2021/10/19 00:36:46;;;;;;;26.80;10.15;;;15.80;84.20;;;;;;5020352;28;20029;-73
2021/10/19 00:39:12;;;;;;;21.15;10.80;;;15.80;84.10;;;;;;5024002;28;20106;-73
2021/10/19 00:41:37;;;;;;;19.15;9.65;;;15.80;84.00;;;;;;5022271;28;20060;-73
2021/10/19 00:44:03;;;;;;;14.25;7.97;;;15.80;83.90;;;;;;5027980;28;20038;-73
2021/10/19 00:46:29;;;;;;;21.60;10.40;;;15.80;83.90;;;;;;5030157;28;20060;-73
2021/10/19 00:48:55;;;;;;;14.70;9.50;;;15.80;84.00;;;;;;5019257;28;20065;-72
2021/10/19 00:51:21;;;;;;;17.70;10.75;;;15.80;84.00;;;;;;5031749;28;20440;-73
2021/10/19 00:53:47;;;;;;;19.88;9.95;;;15.90;84.20;;;;;;5017733;28;20094;-73
2021/10/19 00:56:12;;;;;;;17.52;9.48;;;15.80;84.10;;;;;;5025741;28;20056;-74
2021/10/19 00:58:39;;;;;;;17.25;8.52;;;15.90;84.00;;;;;;5019080;28;20052;-73
2021/10/19 01:01:06;;;;;;;15.55;7.32;;;15.90;83.90;;;;;;5024450;28;20571;-74
2021/10/19 01:03:32;;;;;;;20.30;10.68;;;15.80;83.90;;;;;;5015740;28;20120;-73
2021/10/19 01:06:01;;;;;;;17.80;10.00;;;15.80;84.00;;;;;;5023234;28;20048;-73
2021/10/19 01:08:28;;;;;;;19.60;9.75;;;15.80;84.00;;;;;;5031812;28;20051;-73
2021/10/19 01:10:55;;;;;;;19.92;10.10;;;15.90;84.10;;;;;;5017547;28;20044;-74
2021/10/19 01:13:21;;;;;;;18.83;10.85;;;15.80;84.10;;;;;;5020285;28;20463;-76
2021/10/19 01:15:47;;;;;;;20.52;11.55;;;15.80;84.40;;;;;;5023140;28;20045;-74
2021/10/19 01:18:15;;;;;;;20.42;10.98;;;15.80;84.30;;;;;;5023199;28;20366;-82
2021/10/19 01:20:42;;;;;;;17.58;10.23;;;15.80;84.60;;;;;;5023669;28;20090;-83
2021/10/19 01:23:11;;;;;;;18.75;10.05;;;15.90;84.60;;;;;;5026524;28;20022;-73
2021/10/19 01:25:37;;;;;;;16.63;10.35;;;15.90;84.50;;;;;;5032757;28;20037;-74
2021/10/19 01:28:06;;;;;;;22.67;11.05;;;15.90;84.60;;;;;;5029031;28;20100;-74
2021/10/19 01:30:38;;;;;;;17.85;9.32;;;15.90;84.80;;;;;;5025505;28;20021;-74
2021/10/19 01:33:04;;;;;;;17.63;9.05;;;15.90;84.60;;;;;;5021029;28;20030;-73
2021/10/19 01:35:31;;;;;;;18.25;8.95;;;15.90;84.40;;;;;;5020283;28;20021;-74
2021/10/19 01:37:57;;;;;;;17.15;9.80;;;15.90;84.30;;;;;;5017025;28;20062;-74
2021/10/19 01:40:22;;;;;;;19.00;8.90;;;15.90;84.50;;;;;;5021253;28;20064;-74
2021/10/19 01:42:48;;;;;;;22.52;10.85;;;15.90;84.30;;;;;;5018095;28;20057;-73
2021/10/19 01:45:16;;;;;;;19.20;10.43;;;15.90;84.30;;;;;;5028264;28;20037;-74
2021/10/19 01:47:42;;;;;;;20.73;10.73;;;15.90;84.20;;;;;;5024538;28;20029;-74
2021/10/19 01:50:10;;;;;;;18.40;10.07;;;15.90;84.20;;;;;;5017764;28;20051;-74
2021/10/19 01:52:36;;;;;;;21.10;10.25;;;15.90;84.20;;;;;;5027709;28;20030;-74
2021/10/19 01:55:04;;;;;;;17.35;9.88;;;15.80;84.10;;;;;;5017309;28;20088;-73
2021/10/19 01:57:31;;;;;;;13.88;8.30;;;15.80;84.20;;;;;;5019182;28;20029;-74
2021/10/19 01:59:57;;;;;;;10.98;4.95;;;15.80;84.20;;;;;;5026424;28;20049;-74
2021/10/19 02:02:23;;;;;;;21.52;10.38;;;15.80;83.90;;;;;;5022771;28;20080;-74
2021/10/19 02:04:53;;;;;;;18.77;11.00;;;15.80;84.40;;;;;;5020216;28;20041;-74
2021/10/19 02:07:21;;;;;;;17.98;9.75;;;15.70;84.60;;;;;;5017500;28;20025;-74
2021/10/19 02:09:47;;;;;;;21.08;9.05;;;15.70;84.70;;;;;;5022132;28;20029;-74
2021/10/19 02:12:13;;;;;;;18.70;10.25;;;15.70;84.80;;;;;;5015581;28;20022;-73
2021/10/19 02:14:38;;;;;;;21.33;8.73;;;15.70;85.00;;;;;;5022645;28;20139;-74
2021/10/19 02:17:04;;;;;;;18.02;10.07;;;15.70;85.00;;;;;;5027569;28;20026;-74
2021/10/19 02:19:29;;;;;;;19.73;10.77;;;15.70;85.10;;;;;;5022014;28;20045;-74
2021/10/19 02:21:56;;;;;;;17.55;9.13;;;15.70;85.20;;;;;;5020720;28;20021;-73
2021/10/19 02:24:22;;;;;;;15.50;8.05;;;15.70;85.10;;;;;;5015479;28;20109;-73
2021/10/19 02:26:48;;;;;;;15.23;8.30;;;15.70;85.00;;;;;;5012522;28;20149;-74
2021/10/19 02:29:15;;;;;;;13.73;6.88;;;15.70;85.10;;;;;;5015465;28;20080;-74
2021/10/19 02:31:41;;;;;;;18.70;9.45;;;15.70;84.80;;;;;;5022636;28;20033;-74
2021/10/19 02:34:07;;;;;;;17.15;9.60;;;15.70;85.10;;;;;;5024166;28;20128;-74
2021/10/19 02:36:33;;;;;;;17.80;9.13;;;15.60;85.10;;;;;;5026732;28;20127;-74
2021/10/19 02:39:04;;;;;;;20.63;10.27;;;15.70;85.30;;;;;;5028168;28;20088;-74
2021/10/19 02:41:29;;;;;;;15.25;8.90;;;15.60;85.50;;;;;;5033278;28;20033;-74
2021/10/19 02:43:55;;;;;;;21.63;11.05;;;15.70;85.50;;;;;;5034384;28;20029;-74
2021/10/19 02:46:21;;;;;;;18.65;10.32;;;15.70;85.70;;;;;;5034657;28;20029;-74
2021/10/19 02:48:47;;;;;;;15.15;7.30;;;15.60;85.50;;;;;;5021341;28;20038;-74
2021/10/19 02:51:13;;;;;;;14.77;7.00;;;15.70;85.30;;;;;;5032354;28;20021;-74
2021/10/19 02:53:38;;;;;;;16.55;9.70;;;15.70;85.30;;;;;;5032934;28;20544;-73
2021/10/19 02:56:04;;;;;;;17.52;7.88;;;15.60;85.60;;;;;;5017853;28;20026;-74
2021/10/19 02:58:30;;;;;;;15.18;7.70;;;15.60;85.60;;;;;;5025282;28;20030;-74
2021/10/19 03:00:55;;;;;;;16.15;7.57;;;15.60;85.60;;;;;;5023651;28;20488;-74
2021/10/19 03:03:21;;;;;;;19.00;11.10;;;15.60;85.60;;;;;;5034152;28;20026;-74
2021/10/19 03:05:47;;;;;;;17.85;9.85;;;15.60;85.90;;;;;;5023647;28;20091;-74
2021/10/19 03:08:13;;;;;;;16.10;7.38;;;15.60;86.70;;;;;;5022550;28;20026;-74
2021/10/19 03:10:41;;;;;;;15.95;8.18;;;15.60;85.90;;;;;;5030064;28;20109;-74
2021/10/19 03:13:07;;;;;;;12.38;5.57;;;15.60;86.00;;;;;;5032162;28;20029;-74
2021/10/19 03:15:33;;;;;;;18.27;9.40;;;15.60;85.80;;;;;;5034694;28;20029;-73
2021/10/19 03:17:58;;;;;;;15.10;9.02;;;15.70;86.00;;;;;;5029189;28;20021;-74
2021/10/19 03:20:24;;;;;;;19.58;10.77;;;15.60;86.10;;;;;;5030068;28;20128;-74
2021/10/19 03:22:50;;;;;;;18.00;8.93;;;15.60;86.50;;;;;;5021564;28;20053;-74
2021/10/19 03:25:15;;;;;;;19.08;9.77;;;15.70;86.70;;;;;;5031955;28;20036;-74
2021/10/19 03:27:41;;;;;;;17.42;10.27;;;15.70;86.50;;;;;;5034011;28;20028;-74
2021/10/19 03:30:07;;;;;;;22.98;8.82;;;15.70;86.60;;;;;;5028554;28;20048;-74
2021/10/19 03:32:33;;;;;;;16.77;8.75;;;15.70;86.60;;;;;;5031715;28;20040;-74
2021/10/19 03:34:58;;;;;;;18.88;10.73;;;15.80;86.60;;;;;;5033986;28;20128;-74
2021/10/19 03:37:25;;;;;;;18.30;10.45;;;15.80;86.60;;;;;;5030715;28;20136;-74
2021/10/19 03:39:50;;;;;;;23.58;10.48;;;15.80;86.70;;;;;;5032357;28;20388;-74
2021/10/19 03:42:17;;;;;;;18.70;10.20;;;15.80;86.70;;;;;;5031089;28;20112;-74
2021/10/19 03:44:43;;;;;;;22.80;10.63;;;15.80;86.80;;;;;;5033612;28;20036;-74
2021/10/19 03:47:08;;;;;;;16.55;8.95;;;15.90;86.80;;;;;;5033968;28;20030;-73
2021/10/19 03:49:34;;;;;;;20.38;8.85;;;15.80;86.50;;;;;;5023329;28;20022;-73
2021/10/19 03:51:59;;;;;;;18.30;9.95;;;15.80;86.30;;;;;;5025493;28;20710;-74
2021/10/19 03:54:25;;;;;;;16.70;8.98;;;15.90;86.40;;;;;;5024174;28;20461;-74
2021/10/19 03:56:51;;;;;;;20.33;9.32;;;15.80;86.50;;;;;;5028160;28;20042;-74
2021/10/19 03:59:19;;;;;;;18.05;10.25;;;15.90;86.50;;;;;;5028942;28;20072;-74
2021/10/19 04:01:45;;;;;;;20.33;10.98;;;15.90;86.80;;;;;;5029484;28;20017;-74
2021/10/19 04:04:11;;;;;;;20.33;10.75;;;15.90;86.90;;;;;;5025602;28;20466;-74
2021/10/19 04:06:38;;;;;;;18.65;8.80;;;15.90;86.90;;;;;;5030829;28;20108;-74
2021/10/19 04:09:04;;;;;;;17.55;9.00;;;15.90;86.80;;;;;;5027682;28;20033;-74
2021/10/19 04:11:30;;;;;;;14.13;7.50;;;16.00;86.70;;;;;;5030770;28;20079;-74
2021/10/19 04:13:55;;;;;;;19.52;8.50;;;15.90;86.30;;;;;;5020695;28;20040;-74
2021/10/19 04:16:21;;;;;;;15.98;9.68;;;16.00;86.20;;;;;;5021265;28;20055;-74
2021/10/19 04:18:47;;;;;;;18.55;10.45;;;15.90;86.20;;;;;;5029160;28;20053;-74
2021/10/19 04:21:12;;;;;;;21.83;10.52;;;16.00;86.50;;;;;;5024640;28;20034;-74
2021/10/19 04:23:38;;;;;;;19.55;10.02;;;16.00;86.60;;;;;;5032288;28;20033;-74
2021/10/19 04:26:04;;;;;;;16.83;8.90;;;16.00;86.60;;;;;;5027864;28;20032;-74
2021/10/19 04:28:29;;;;;;;17.42;9.52;;;16.10;86.60;;;;;;5022178;28;20050;-74
2021/10/19 04:30:55;;;;;;;19.48;10.75;;;16.10;86.50;;;;;;5020908;28;20028;-74
2021/10/19 04:33:21;;;;;;;17.30;9.05;;;16.10;86.60;;;;;;5032050;28;20444;-74
2021/10/19 04:35:46;;;;;;;20.42;10.30;;;16.10;86.10;;;;;;5020312;28;20037;-74
2021/10/19 04:38:13;;;;;;;22.67;8.93;;;16.10;86.30;;;;;;5020289;28;20096;-74
2021/10/19 04:40:39;;;;;;;15.10;9.13;;;16.10;86.30;;;;;;5031618;28;20107;-74
2021/10/19 04:43:05;;;;;;;18.42;8.65;;;16.10;86.60;;;;;;5028334;28;20469;-74
2021/10/19 04:45:30;;;;;;;15.68;8.75;;;16.10;86.30;;;;;;5025657;28;20358;-74
2021/10/19 04:47:57;;;;;;;15.13;8.10;;;16.10;86.50;;;;;;5031767;28;20026;-74
2021/10/19 04:50:24;;;;;;;13.57;6.43;;;16.10;86.30;;;;;;5024892;28;20043;-74
2021/10/19 04:52:50;;;;;;;16.05;8.07;;;16.10;85.80;;;;;;5030229;28;20060;-74
2021/10/19 04:55:15;;;;;;;12.32;7.30;;;16.00;85.80;;;;;;5025098;28;20157;-74
2021/10/19 04:57:41;;;;;;;22.20;8.95;;;16.00;85.70;;;;;;5031991;28;20037;-74
2021/10/19 05:00:10;;;;;;;19.00;9.93;;;15.90;86.20;;;;;;5026960;28;20092;-75
2021/10/19 05:02:44;;;;;;;9.88;5.88;;;16.00;86.60;;;;;;5018896;28;20032;-75
2021/10/19 05:05:09;;;;;;;13.30;7.93;;;16.00;86.40;;;;;;5026763;28;20044;-75
2021/10/19 05:07:35;;;;;;;13.63;6.30;;;15.90;86.50;;;;;;5028770;28;20026;-75
2021/10/19 05:10:01;;;;;;;14.85;8.80;;;15.90;86.50;;;;;;5032554;28;20104;-75
2021/10/19 05:12:26;;;;;;;17.48;9.88;;;15.80;86.90;;;;;;5030445;28;20419;-75
2021/10/19 05:14:52;;;;;;;16.75;9.15;;;15.80;87.30;;;;;;5018726;28;20423;-75
2021/10/19 05:17:17;;;;;;;15.85;8.65;;;15.80;87.40;;;;;;5031653;28;20030;-74
2021/10/19 05:19:44;;;;;;;21.23;7.25;;;15.80;87.60;;;;;;5030261;28;20045;-75
2021/10/19 05:22:17;;;;;;;12.90;6.93;;;15.80;87.60;;;;;;5031567;28;20029;-75
2021/10/19 05:24:43;;;;;;;14.13;7.28;;;15.80;87.60;;;;;;5030918;28;20391;-75
2021/10/19 05:27:09;;;;;;;16.08;9.30;;;15.80;87.90;;;;;;5029947;28;20033;-75
2021/10/19 05:29:34;;;;;;;5.60;3.47;;;15.70;88.30;;;;;;5031264;28;20037;-75
2021/10/19 05:32:04;;;;;;;18.73;9.15;;;15.70;88.10;;;;;;5024650;28;20030;-75
2021/10/19 05:34:30;;;;;;;10.25;5.65;;;15.70;88.80;;;;;;5023920;28;20068;-74
2021/10/19 05:36:58;;;;;;;11.32;5.63;;;15.70;88.70;;;;;;5028503;28;20045;-73
2021/10/19 05:39:24;;;;;;;15.68;7.03;;;15.70;88.90;;;;;;5022223;28;20033;-74
2021/10/19 05:41:51;;;;;;;19.23;9.68;;;15.70;89.00;;;;;;5029196;28;20052;-75
2021/10/19 05:44:16;;;;;;;14.75;7.57;;;15.60;89.30;;;;;;5031553;28;20123;-75
2021/10/19 05:46:42;;;;;;;6.53;3.70;;;15.60;89.30;;;;;;5032454;28;20061;-74
2021/10/19 05:49:07;;;;;;;13.82;5.93;;;15.60;89.10;;;;;;5029948;28;20049;-75
2021/10/19 05:51:33;;;;;;;7.00;4.35;;;15.60;89.40;;;;;;5031859;28;20388;-75
2021/10/19 05:53:59;;;;;;;8.55;5.07;;;15.60;89.50;;;;;;5027884;28;20025;-74
2021/10/19 05:56:25;;;;;;;7.38;3.97;;;15.60;89.50;;;;;;5029163;28;20022;-75
2021/10/19 05:58:51;;;;;;;9.45;5.13;;;15.60;89.40;;;;;;5028287;28;20440;-74
2021/10/19 06:01:17;;;;;;;16.23;6.47;;;15.60;89.50;;;;;;5017482;28;20029;-74
2021/10/19 06:03:45;;;;;;;28.80;11.27;;;15.70;89.80;;;;;;5022666;28;20038;-74
2021/10/19 06:06:13;;;;;;;12.77;6.25;;;15.70;90.10;;;;;;5029800;28;20034;-74
2021/10/19 06:08:38;;;;;;;20.08;8.55;;;15.60;89.90;;;;;;5031129;28;20026;-74
2021/10/19 06:11:04;;;;;;;19.02;9.18;;;15.60;90.00;;;;;;5028066;28;20369;-75
2021/10/19 06:13:31;;;;;;;12.13;6.45;;;15.60;90.00;;;;;;5029971;28;20125;-75
2021/10/19 06:15:56;;;;;;;14.23;7.65;;;15.70;90.00;;;;;;5028757;28;20050;-74
2021/10/19 06:18:24;;;;;;;9.80;4.53;;;15.70;90.00;;;;;;5030517;28;20030;-75
2021/10/19 06:20:50;;;;;;;12.93;7.68;;;15.70;89.80;;;;;;5025102;28;20495;-82
2021/10/19 06:23:17;;;;;;;22.25;9.07;;;15.70;89.90;;;;;;5030033;28;20052;-75
2021/10/19 06:25:43;;;;;;;10.95;5.90;;;15.70;90.00;;;;;;5031270;28;20037;-75
2021/10/19 06:28:08;;;;;;;21.00;9.73;;;15.70;89.80;;;;;;5017811;28;20028;-74
2021/10/19 06:30:34;;;;;;;15.07;9.32;;;15.70;89.90;;;;;;5014312;28;20477;-75
2021/10/19 06:33:00;;;;;;;18.85;10.32;;;15.80;90.00;;;;;;5019975;28;20490;-75
2021/10/19 06:35:26;;;;;;;18.98;9.55;;;15.80;90.00;;;;;;5018672;28;20038;-75
2021/10/19 06:37:52;;;;;;;20.77;10.02;;;15.70;90.00;;;;;;5025002;28;20049;-75
2021/10/19 06:40:17;;;;;;;17.42;10.73;;;15.70;90.00;;;;;;5016526;28;20441;-74
2021/10/19 06:42:45;;;;;;;18.25;8.68;;;15.70;90.10;;;;;;5013577;28;20030;-75
2021/10/19 06:45:11;;;;;;;9.02;4.35;;;15.80;90.00;;;;;;5013028;28;20034;-75
2021/10/19 06:47:37;;;;;;;20.00;8.93;;;15.80;89.90;;;;;;5017029;28;20026;-75
2021/10/19 06:50:04;;;;;;;15.75;6.57;;;15.80;90.00;;;;;;5020276;28;20052;-79
2021/10/19 06:52:30;;;;;;;18.90;8.38;;;15.80;90.00;;;;;;5015140;28;20495;-78
2021/10/19 06:54:57;;;;;;;17.70;10.80;;;15.80;90.10;;;;;;5020192;28;20030;-77
2021/10/19 06:57:23;;;;;;;11.50;6.32;;;15.80;90.10;;;;;;5021161;28;20026;-78
2021/10/19 06:59:48;;;;;;;9.75;4.63;;;15.80;90.00;;;;;;5017216;28;20096;-81
2021/10/19 07:02:15;;;;;;;24.80;11.52;;;15.80;89.80;;;;;;5019305;28;20017;-83
2021/10/19 07:04:41;;;;;;;18.80;8.40;;;15.80;90.10;;;;;;5019905;28;20036;-82
2021/10/19 07:07:07;;;;;;;11.85;7.07;;;15.80;90.00;;;;;;5023653;28;20033;-85
2021/10/19 07:09:33;;;;;;;10.85;6.70;;;15.90;90.00;;;;;;5024417;28;20025;-75
2021/10/19 07:12:01;;;;;;;22.10;8.93;;;15.80;90.00;;;;;;5018334;28;20026;-75
2021/10/19 07:14:26;;;;;;;13.18;6.63;;;15.90;90.10;;;;;;5014918;28;20045;-74
2021/10/19 07:16:54;;;;;;;22.42;9.65;;;15.80;90.00;;;;;;5015654;28;20132;-74
2021/10/19 07:19:20;;;;;;;15.63;8.73;;;15.80;90.20;;;;;;5020445;28;20393;-74
2021/10/19 07:21:46;;;;;;;21.23;12.43;;;15.80;90.10;;;;;;5024561;28;20041;-74
2021/10/19 07:24:11;;;;;;;20.75;9.65;;;15.90;90.40;;;;;;5026267;28;20072;-74
2021/10/19 07:26:37;;;;;;;18.73;11.18;;;15.90;90.40;;;;;;5021670;28;20026;-74
2021/10/19 07:29:03;;;;;;;18.98;9.90;;;15.90;90.40;;;;;;5031492;28;20508;-74
2021/10/19 07:31:28;;;;;;;24.75;11.43;;;16.00;90.40;;;;;;5027682;28;20025;-74
2021/10/19 07:33:54;;;;;;;19.45;9.05;;;16.00;90.40;;;;;;5029570;28;20552;-74
2021/10/19 07:36:23;;;;;;;17.75;10.20;;;16.00;90.30;;;;;;5028664;28;20116;-73
2021/10/19 07:38:50;;;;;;;15.45;8.73;;;16.00;90.30;;;;;;5028156;28;20049;-74
2021/10/19 07:41:15;;;;;;;18.60;9.82;;;16.00;90.30;;;;;;5031380;28;20381;-74
2021/10/19 07:43:41;;;;;;;8.68;5.07;;;16.00;90.30;;;;;;5033305;28;20022;-80
2021/10/19 07:46:06;;;;;;;22.25;9.80;;;16.00;90.20;;;;;;5032704;28;20123;-79
2021/10/19 07:48:32;;;;;;;19.70;10.48;;;16.00;90.30;;;;;;5032964;28;20030;-79
2021/10/19 07:50:58;;;;;;;12.40;5.68;;;16.00;90.30;;;;;;5023871;28;20045;-82
2021/10/19 07:53:23;;;;;;;19.38;8.40;;;16.00;90.20;;;;;;5023900;28;20061;-77
2021/10/19 07:55:52;;;;;;;16.83;7.90;;;16.00;90.30;;;;;;5024319;28;20104;-79
2021/10/19 07:58:18;;;;;;;18.40;9.48;;;16.00;90.30;;;;;;5016842;28;20116;-73
2021/10/19 08:00:44;;;;;;;14.73;8.10;;;16.00;90.40;;;;;;5030749;28;20128;-73
2021/10/19 08:03:09;;;;;;;20.48;11.07;;;16.00;90.40;;;;;;5029428;28;20040;-74
2021/10/19 08:05:35;;;;;;;10.38;5.90;;;16.00;90.60;;;;;;5021794;28;20045;-73
2021/10/19 08:08:12;;;;;;;19.15;10.07;;;16.10;90.40;;;;;;5028311;28;20026;-74
2021/10/19 08:10:41;;;;;;;16.05;9.25;;;16.10;90.60;;;;;;5028080;28;20045;-74
2021/10/19 08:13:09;;;;;;;10.50;5.18;;;16.10;90.70;;;;;;5028157;28;20087;-73
2021/10/19 08:15:35;;;;;;;14.35;8.13;;;16.20;90.40;;;;;;5028599;28;20036;-73
2021/10/19 08:18:02;;;;;;;14.80;9.73;;;16.10;90.40;;;;;;5024909;28;20038;-74
2021/10/19 08:20:30;;;;;;;15.05;6.80;;;16.20;90.60;;;;;;5009775;28;20049;-73
2021/10/19 08:22:56;;;;;;;19.65;10.63;;;16.10;90.40;;;;;;5019791;28;20113;-73
2021/10/19 08:25:21;;;;;;;16.05;8.60;;;16.20;90.70;;;;;;5028019;28;20132;-73
2021/10/19 08:27:48;;;;;;;17.67;9.60;;;16.10;90.60;;;;;;5030177;28;20029;-73
2021/10/19 08:30:17;;;;;;;18.10;10.50;;;16.20;90.80;;;;;;5012981;28;20058;-73
2021/10/19 08:32:42;;;;;;;17.30;9.65;;;16.20;91.00;;;;;;5024640;28;20026;-73
2021/10/19 08:35:09;;;;;;;13.63;7.75;;;16.20;90.90;;;;;;5029795;28;20025;-73
2021/10/19 08:37:35;;;;;;;10.70;5.43;;;16.20;90.90;;;;;;5012956;28;20478;-73
2021/10/19 08:40:04;;;;;;;8.73;4.93;;;16.10;90.80;;;;;;5015227;28;20484;-73
2021/10/19 08:42:30;;;;;;;11.85;7.55;;;16.20;90.90;;;;;;5033197;28;20025;-73
2021/10/19 08:44:56;;;;;;;11.32;6.32;;;16.20;91.00;;;;;;5030884;28;20029;-73
2021/10/19 08:47:24;;;;;;;14.15;8.50;;;16.20;91.00;;;;;;5030533;28;20555;-73
2021/10/19 08:49:50;;;;;;;15.38;7.95;;;16.20;91.20;;;;;;5033430;28;20029;-73
2021/10/19 08:52:16;;;;;;;17.95;9.10;;;16.20;91.10;;;;;;5030355;28;20545;-73
2021/10/19 08:54:42;;;;;;;14.55;8.45;;;16.20;91.30;;;;;;5033251;28;20029;-73
2021/10/19 08:57:16;;;;;;;17.10;8.80;;;16.20;91.20;;;;;;5031034;28;20030;-73
2021/10/19 08:59:46;;;;;;;13.32;5.22;;;16.20;91.40;;;;;;5032310;28;20341;-74
2021/10/19 09:02:13;;;;;;;15.85;9.73;;;16.30;91.20;;;;;;5019784;28;20389;-73
2021/10/19 09:04:39;;;;;;;15.93;8.13;;;16.30;91.40;;;;;;5025557;28;20044;-73
2021/10/19 09:07:05;;;;;;;14.50;9.20;;;16.30;91.40;;;;;;5015418;28;20037;-73
2021/10/19 09:09:33;;;;;;;14.23;7.40;;;16.40;91.40;;;;;;5028070;28;20034;-73
2021/10/19 09:11:59;;;;;;;10.70;6.45;;;16.40;91.30;;;;;;5021717;28;20187;-73
2021/10/19 09:14:37;;;;;;;19.15;8.27;;;16.40;91.20;;;;;;5031352;28;20140;-73
2021/10/19 09:17:04;;;;;;;13.80;6.47;;;16.40;91.30;;;;;;5032788;28;20052;-73
2021/10/19 09:19:34;;;;;;;13.98;8.35;;;16.40;91.20;;;;;;5030446;28;20041;-73
2021/10/19 09:22:09;;;;;;;14.18;7.15;;;16.50;91.40;;;;;;5032359;28;20025;-73
2021/10/19 09:24:36;;;;;;;16.83;9.32;;;16.50;91.40;;;;;;5031897;28;20033;-73
2021/10/19 09:27:05;;;;;;;4.10;2.70;;;16.50;91.50;;;;;;5031725;28;20033;-74
2021/10/19 09:29:40;;;;;;;12.50;7.25;;;16.40;91.30;;;;;;5021124;28;20030;-86
2021/10/19 09:32:07;;;;;;;13.40;5.68;;;16.50;91.40;;;;;;5022546;28;20029;-74
2021/10/19 09:34:34;;;;;;;11.82;6.20;;;16.50;91.30;;;;;;5020030;28;20041;-71
2021/10/19 09:37:01;;;;;;;9.25;6.05;;;16.50;91.30;;;;;;5018727;28;20036;-73
2021/10/19 09:39:34;;;;;;;13.98;8.70;;;16.50;91.40;;;;;;5021648;28;20676;-73
2021/10/19 09:42:01;;;;;;;8.43;5.27;;;16.50;91.60;;;;;;5017713;28;20104;-73
2021/10/19 09:44:27;;;;;;;17.42;8.35;;;16.50;91.40;;;;;;5019887;28;20036;-77
2021/10/19 09:46:53;;;;;;;11.80;7.20;;;16.50;91.70;;;;;;5023003;28;20470;-77
2021/10/19 09:49:22;;;;;;;12.20;6.65;;;16.50;91.70;;;;;;5023776;28;20029;-80
2021/10/19 09:51:47;;;;;;;9.23;6.03;;;16.60;91.70;;;;;;5021930;28;20121;-78
2021/10/19 09:54:19;;;;;;;3.30;2.53;;;16.60;91.60;;;;;;5020329;28;20109;-79
2021/10/19 09:56:46;;;;;;;14.32;7.00;;;16.60;91.50;;;;;;5022562;28;20124;-79
2021/10/19 09:59:14;;;;;;;10.32;6.68;;;16.60;91.70;;;;;;5017763;28;20113;-79
2021/10/19 10:01:40;;;;;;;10.23;6.45;;;16.60;91.80;;;;;;5020798;28;20116;-78
2021/10/19 10:04:07;;;;;;;7.72;4.53;;;16.60;91.90;;;;;;5020549;28;20073;-76
2021/10/19 10:06:34;;;;;;;2.08;1.33;;;16.60;91.70;;;;;;5029827;28;20037;-77
2021/10/19 10:09:01;;;;;;;10.15;5.95;;;16.70;91.70;;;;;;5030049;28;20026;-80
2021/10/19 10:11:27;;;;;;;6.72;4.13;;;16.70;92.00;;;;;;5026753;28;20037;-75
2021/10/19 10:14:02;;;;;;;7.40;4.32;;;16.70;91.90;;;;;;5032025;28;20439;-74
2021/10/19 10:16:29;;;;;;;9.85;6.25;;;16.70;92.00;;;;;;5029340;28;20480;-75
2021/10/19 10:18:55;;;;;;;13.93;5.63;;;16.70;92.10;;;;;;5031772;28;20041;-74
2021/10/19 10:21:24;;;;;;;3.95;2.40;;;16.70;92.30;;;;;;5014973;28;20042;-74
2021/10/19 10:24:03;;;;;;;11.50;6.05;;;16.70;92.10;;;;;;5020957;28;20044;-74
2021/10/19 10:26:32;;;;;;;5.43;3.40;;;16.80;92.30;;;;;;5029497;28;20033;-75
2021/10/19 10:29:09;;;;;;;12.23;6.90;;;16.80;92.10;;;;;;5023391;28;20307;-74
2021/10/19 10:31:52;;;;;;;6.68;3.83;;;16.80;92.50;;;;;;5016584;28;20033;-73
2021/10/19 10:34:29;;;;;;;6.55;3.67;;;16.80;92.30;;;;;;5021900;28;20102;-74
2021/10/19 10:37:05;;;;;;;4.65;3.33;;;16.80;92.30;;;;;;5023460;28;20039;-74
2021/10/19 10:39:34;;;;;;;5.15;1.90;;;16.80;92.30;;;;;;5025235;28;20052;-75
2021/10/19 10:42:07;;;;;;;7.40;3.67;;;16.80;92.40;;;;;;5023802;28;20422;-75
2021/10/19 10:44:40;;;;;;;10.07;6.25;;;16.80;92.40;;;;;;5017598;28;20034;-74
2021/10/19 10:47:06;;;;;;;10.70;5.18;;;16.80;92.80;;;;;;5022516;28;20034;-74
2021/10/19 10:49:32;;;;;;;8.15;5.50;;;16.90;92.90;;;;;;5019772;28;20037;-74
2021/10/19 10:52:00;;;;;;;8.50;5.13;;;16.90;92.80;;;;;;5021451;28;20064;-74
2021/10/19 10:54:26;;;;;;;5.65;3.70;;;16.90;92.80;;;;;;5023734;28;20034;-75
2021/10/19 10:56:53;;;;;;;7.05;4.00;;;17.00;92.80;;;;;;5025525;28;20036;-75
2021/10/19 10:59:29;;;;;;;8.85;4.85;;;17.00;92.80;;;;;;5025837;28;20048;-75
2021/10/19 11:01:56;;;;;;;6.80;3.63;;;17.00;92.90;;;;;;5025399;28;20084;-75
2021/10/19 11:04:22;;;;;;;5.90;3.40;;;17.00;92.80;;;;;;5030465;28;20037;-74
2021/10/19 11:06:47;;;;;;;6.30;4.38;;;17.00;92.80;;;;;;5032275;28;20109;-75
2021/10/19 11:09:15;;;;;;;5.25;3.38;;;17.10;93.00;;;;;;5032030;28;20033;-74
2021/10/19 11:11:44;;;;;;;3.92;2.47;;;17.10;92.90;;;;;;5028135;28;20057;-75
2021/10/19 11:14:11;;;;;;;3.85;2.50;;;17.10;92.90;;;;;;5029109;28;20465;-75
2021/10/19 11:16:47;;;;;;;2.78;1.63;;;17.10;93.00;;;;;;5029008;28;20033;-75
2021/10/19 11:19:27;;;;;;;5.63;3.33;;;17.20;93.20;;;;;;5030454;28;20389;-76
2021/10/19 11:21:59;;;;;;;5.80;3.22;;;17.20;93.60;;;;;;5022077;28;20045;-80
2021/10/19 11:24:28;;;;;;;2.30;1.50;;;17.10;93.50;;;;;;5018920;28;20041;-80
2021/10/19 11:26:54;;;;;;;3.60;1.63;;;17.20;93.60;;;;;;5031167;28;20462;-78
2021/10/19 11:29:21;;;;;;;2.83;1.77;;;17.20;93.90;;;;;;5028314;28;20048;-80
2021/10/19 11:31:47;;;;;;;1.55;1.10;;;17.20;94.00;;;;;;5024300;28;20034;-79
2021/10/19 11:34:13;;;;;;;3.33;2.42;;;17.20;93.90;;;;;;5027383;28;20117;-79
2021/10/19 11:36:39;;;;;;;5.97;1.95;;;17.20;94.10;;;;;;5023040;28;20129;-77
2021/10/19 11:39:14;;;;;;;2.40;1.65;;;17.30;94.20;;;;;;5026432;28;20042;-76
2021/10/19 11:41:53;;;;;;;3.90;2.42;;;17.30;94.20;;;;;;5019842;28;20080;-76
2021/10/19 11:44:18;;;;;;;2.60;1.60;;;17.30;94.30;;;;;;5019966;28;20026;-77
2021/10/19 11:46:47;;;;;;;5.93;3.35;;;17.30;94.50;;;;;;5022933;28;20041;-75
2021/10/19 11:49:16;;;;;;;3.38;2.45;;;17.30;94.70;;;;;;5023293;28;20057;-75
2021/10/19 11:51:43;;;;;;;2.00;1.42;;;17.30;94.70;;;;;;5029464;28;20063;-80
2021/10/19 11:54:09;;;;;;;5.93;2.45;;;17.30;94.80;;;;;;5029039;28;20026;-75
2021/10/19 11:56:35;;;;;;;3.67;2.10;;;17.30;94.70;;;;;;5028295;28;20030;-72
2021/10/19 11:59:06;;;;;;;2.90;2.33;;;17.40;94.80;;;;;;5022916;28;20095;-73
2021/10/19 12:01:39;;;;;;;2.65;1.58;;;17.40;94.80;;;;;;5028164;28;20034;-73
2021/10/19 12:04:07;;;;;;;3.25;2.25;;;17.50;94.80;;;;;;5033206;28;20408;-73
2021/10/19 12:06:34;;;;;;;1.67;1.50;;;17.40;94.90;;;;;;5030134;28;20029;-73
2021/10/19 12:09:16;;;;;;;1.83;1.58;;;17.50;95.00;;;;;;5030117;28;20488;-73
2021/10/19 12:11:53;;;;;;;4.10;3.05;;;17.50;95.00;;;;;;5026579;28;20112;-73
2021/10/19 12:14:36;;;;;;;6.15;1.73;;;17.50;95.20;;;;;;5028767;28;20071;-73
2021/10/19 12:17:04;;;;;;;4.97;2.60;;;17.50;95.10;;;;;;5029998;28;20033;-73
2021/10/19 12:19:31;;;;;;;2.13;1.50;;;17.60;95.10;;;;;;5027741;28;20046;-73
2021/10/19 12:22:03;;;;;;;2.00;1.63;;;17.50;95.30;;;;;;5018782;28;20033;-73
2021/10/19 12:24:34;;;;;;;3.05;2.15;;;17.60;95.50;;;;;;5028791;28;20492;-73
2021/10/19 12:27:08;;;;;;;2.80;2.05;;;17.60;95.50;;;;;;5032510;28;20040;-73
2021/10/19 12:29:35;;;;;;;2.45;1.67;;;17.60;95.70;;;;;;5021042;28;20047;-73
2021/10/19 12:32:03;;;;;;;2.17;1.70;;;17.60;95.70;;;;;;5014292;28;20030;-73
2021/10/19 12:34:29;;;;;;;4.40;2.25;;;17.70;95.70;;;;;;5014920;28;20041;-73
2021/10/19 12:37:04;;;;;;;2.35;1.95;;;17.70;95.70;;;;;;5029247;28;20381;-72